createdAt,value
2018-03-03T00:02:22.572Z,55.05
2018-03-03T00:04:49.312Z,59.13
2018-03-03T00:07:15.482Z,60.20
2018-03-03T00:09:42.051Z,59.83
2018-03-03T00:12:09.850Z,62.17
2018-03-03T00:14:35.961Z,60.42
2018-03-03T00:17:02.186Z,54.85
2018-03-03T00:19:28.760Z,54.78
2018-03-03T00:21:54.892Z,59.10
2018-03-03T00:24:22.071Z,53.10
2018-03-03T00:26:48.280Z,55.47
2018-03-03T00:29:15.452Z,55.75
2018-03-03T00:31:41.639Z,56.10
2018-03-03T00:34:07.742Z,53.35
2018-03-03T00:36:33.932Z,58.35
2018-03-03T00:39:00.143Z,57.58
2018-03-03T00:41:27.034Z,58.95
2018-03-03T00:43:53.241Z,57.55
2018-03-03T00:46:19.468Z,59.67
2018-03-03T00:48:45.703Z,57.78
2018-03-03T00:51:12.746Z,60.97
2018-03-03T00:53:38.994Z,58.65
2018-03-03T00:56:05.211Z,54.15
2018-03-03T00:58:31.514Z,63.30
2018-03-03T01:00:57.658Z,58.17
2018-03-03T01:03:24.578Z,56.08
2018-03-03T01:05:50.915Z,58.28
2018-03-03T01:08:17.404Z,56.85
2018-03-03T01:10:44.430Z,57.83
2018-03-03T01:13:10.553Z,55.92
2018-03-03T01:15:36.734Z,56.30
2018-03-03T01:18:05.094Z,56.53
2018-03-03T01:20:31.897Z,55.92
2018-03-03T01:22:59.165Z,58.22
2018-03-03T01:25:26.310Z,57.17
2018-03-03T01:27:52.932Z,56.03
2018-03-03T01:30:19.028Z,57.80
2018-03-03T01:32:45.160Z,58.33
2018-03-03T01:35:14.772Z,57.55
2018-03-03T01:37:41.170Z,57.35
2018-03-03T01:40:07.353Z,58.22
2018-03-03T01:42:33.868Z,57.95
2018-03-03T01:45:00.008Z,55.78
2018-03-03T01:47:26.510Z,57.22
2018-03-03T01:49:54.747Z,53.92
2018-03-03T01:52:20.893Z,55.88
2018-03-03T01:54:47.099Z,55.42
2018-03-03T01:57:14.019Z,56.47
2018-03-03T01:59:41.060Z,54.70
2018-03-03T02:02:07.186Z,53.15
2018-03-03T02:04:33.957Z,60.17
2018-03-03T02:07:00.670Z,54.55
2018-03-03T02:09:27.075Z,59.63
2018-03-03T02:11:54.428Z,57.42
2018-03-03T02:14:20.910Z,57.40
2018-03-03T02:16:47.152Z,55.35
2018-03-03T02:19:13.343Z,56.75
2018-03-03T02:21:39.434Z,54.35
2018-03-03T02:24:05.571Z,56.28
2018-03-03T02:26:31.763Z,54.67
2018-03-03T02:28:58.299Z,56.85
2018-03-03T02:31:24.473Z,56.67
2018-03-03T02:33:51.871Z,56.60
2018-03-03T02:36:19.341Z,55.70
2018-03-03T02:38:46.412Z,55.50
2018-03-03T02:41:12.713Z,51.78
2018-03-03T02:43:40.036Z,55.05
2018-03-03T02:46:06.395Z,55.65
2018-03-03T02:48:32.703Z,57.65
2018-03-03T02:50:58.891Z,55.12
2018-03-03T02:53:25.892Z,55.90
2018-03-03T02:55:52.111Z,56.35
2018-03-03T02:58:18.359Z,59.05
2018-03-03T03:00:46.008Z,54.83
2018-03-03T03:03:12.136Z,59.85
2018-03-03T03:05:38.645Z,54.72
2018-03-03T03:08:05.851Z,56.70
2018-03-03T03:10:32.106Z,55.83
2018-03-03T03:13:00.396Z,57.13
2018-03-03T03:15:26.543Z,57.97
2018-03-03T03:17:53.919Z,56.80
2018-03-03T03:20:20.587Z,55.88
2018-03-03T03:22:46.874Z,57.53
2018-03-03T03:25:13.085Z,54.30
2018-03-03T03:27:40.341Z,58.45
2018-03-03T03:30:06.616Z,58.15
2018-03-03T03:32:33.590Z,53.17
2018-03-03T03:34:59.836Z,57.13
2018-03-03T03:37:27.510Z,56.17
2018-03-03T03:39:53.657Z,52.28
2018-03-03T03:42:20.060Z,56.88
2018-03-03T03:44:46.286Z,54.78
2018-03-03T03:47:12.832Z,58.00
2018-03-03T03:49:39.976Z,55.30
2018-03-03T03:52:06.205Z,56.97
2018-03-03T03:54:33.414Z,57.50
2018-03-03T03:56:59.675Z,55.40
2018-03-03T03:59:26.794Z,54.00
2018-03-03T04:01:53.044Z,54.45
2018-03-03T04:04:19.255Z,57.17
2018-03-03T04:06:46.110Z,55.40
2018-03-03T04:09:12.318Z,53.83
2018-03-03T04:11:38.521Z,55.15
2018-03-03T04:14:05.587Z,54.75
2018-03-03T04:16:32.526Z,52.40
2018-03-03T04:18:59.708Z,56.20
2018-03-03T04:21:25.866Z,54.60
2018-03-03T04:23:52.102Z,53.53
2018-03-03T04:26:18.285Z,56.03
2018-03-03T04:28:45.204Z,55.47
2018-03-03T04:31:11.314Z,55.75
2018-03-03T04:33:37.468Z,51.60
2018-03-03T04:36:03.678Z,52.75
2018-03-03T04:38:30.267Z,54.42
2018-03-03T04:40:56.369Z,54.80
2018-03-03T04:43:22.894Z,53.75
2018-03-03T04:45:49.531Z,55.75
2018-03-03T04:48:15.758Z,55.10
2018-03-03T04:50:42.766Z,52.50
2018-03-03T04:53:08.894Z,49.53
2018-03-03T04:55:35.369Z,51.80
2018-03-03T04:58:01.490Z,54.40
2018-03-03T05:00:34.159Z,54.42
2018-03-03T05:03:21.250Z,50.83
2018-03-03T05:05:53.539Z,54.20
2018-03-03T05:11:18.169Z,49.28
2018-03-03T05:13:44.463Z,53.60
2018-03-03T05:16:20.452Z,52.53
2018-03-03T05:18:52.957Z,50.58
2018-03-03T05:21:25.297Z,54.15
2018-03-03T05:23:57.961Z,53.75
2018-03-03T05:26:30.866Z,55.30
2018-03-03T05:29:18.470Z,51.37
2018-03-03T05:31:50.714Z,54.28
2018-03-03T05:34:27.627Z,50.83
2018-03-03T05:36:59.989Z,54.22
2018-03-03T05:39:33.347Z,52.10
2018-03-03T05:45:16.271Z,51.37
2018-03-03T05:47:48.664Z,51.30
2018-03-03T05:50:15.862Z,50.92
2018-03-03T05:52:48.192Z,52.30
2018-03-03T05:55:15.174Z,53.28
2018-03-03T05:58:00.209Z,50.88
2018-03-03T06:00:45.721Z,51.40
2018-03-03T06:03:13.002Z,51.30
2018-03-03T06:05:59.183Z,51.83
2018-03-03T06:08:41.261Z,52.47
2018-03-03T06:11:09.279Z,51.33
2018-03-03T06:13:36.183Z,52.90
2018-03-03T06:16:02.289Z,50.67
2018-03-03T06:18:29.178Z,52.90
2018-03-03T06:20:55.247Z,51.80
2018-03-03T06:23:21.466Z,49.08
2018-03-03T06:25:52.034Z,53.15
2018-03-03T06:28:19.039Z,50.38
2018-03-03T06:30:45.327Z,51.70
2018-03-03T06:33:12.364Z,50.88
2018-03-03T06:35:38.685Z,51.83
2018-03-03T06:38:04.868Z,49.72
2018-03-03T06:40:31.057Z,51.13
2018-03-03T06:42:57.230Z,51.22
2018-03-03T06:45:23.432Z,50.03
2018-03-03T06:47:49.790Z,57.38
2018-03-03T06:50:16.977Z,53.22
2018-03-03T06:52:52.868Z,52.05
2018-03-03T06:55:19.772Z,54.35
2018-03-03T06:57:46.062Z,50.28
2018-03-03T07:00:12.292Z,51.05
2018-03-03T07:02:38.461Z,51.15
2018-03-03T07:05:05.512Z,49.05
2018-03-03T07:07:31.679Z,48.60
2018-03-03T07:09:57.814Z,52.88
2018-03-03T07:12:24.139Z,51.15
2018-03-03T07:14:53.121Z,50.92
2018-03-03T07:17:19.252Z,50.12
2018-03-03T07:19:45.361Z,50.53
2018-03-03T07:22:11.787Z,49.55
2018-03-03T07:24:38.788Z,52.05
2018-03-03T07:27:05.235Z,51.75
2018-03-03T07:29:31.799Z,51.10
2018-03-03T07:31:57.905Z,61.08
2018-03-03T07:34:24.072Z,62.30
2018-03-03T07:36:50.255Z,58.92
2018-03-03T07:39:16.406Z,58.87
2018-03-03T07:41:42.514Z,52.85
2018-03-03T07:44:08.847Z,51.00
2018-03-03T07:46:35.075Z,51.83
2018-03-03T07:49:01.231Z,51.33
2018-03-03T07:51:27.630Z,50.38
2018-03-03T07:53:53.831Z,50.03
2018-03-03T07:56:20.017Z,49.13
2018-03-03T07:58:48.909Z,49.08
2018-03-03T08:01:15.790Z,49.40
2018-03-03T08:03:41.973Z,50.65
2018-03-03T08:06:08.860Z,48.95
2018-03-03T08:08:35.108Z,53.75
2018-03-03T08:11:01.330Z,51.00
2018-03-03T08:13:28.043Z,52.92
2018-03-03T08:15:54.344Z,50.17
2018-03-03T08:18:20.859Z,50.10
2018-03-03T08:20:48.025Z,52.60
2018-03-03T08:23:15.128Z,54.30
2018-03-03T08:25:42.394Z,53.35
2018-03-03T08:28:08.532Z,51.47
2018-03-03T08:30:34.786Z,51.15
2018-03-03T08:33:00.904Z,51.78
2018-03-03T08:35:27.937Z,65.50
2018-03-03T08:37:54.221Z,61.95
2018-03-03T08:40:23.382Z,60.67
2018-03-03T08:42:50.510Z,59.92
2018-03-03T08:45:16.775Z,54.38
2018-03-03T08:47:43.246Z,55.10
2018-03-03T08:50:09.528Z,53.05
2018-03-03T08:52:35.707Z,51.13
2018-03-03T08:55:03.896Z,52.25
2018-03-03T08:57:30.082Z,51.72
2018-03-03T08:59:56.972Z,53.42
2018-03-03T09:02:24.028Z,53.75
2018-03-03T09:04:57.103Z,53.85
2018-03-03T09:07:23.239Z,51.67
2018-03-03T09:09:49.905Z,52.33
2018-03-03T09:12:16.071Z,51.65
2018-03-03T09:14:43.232Z,51.75
2018-03-03T09:17:09.336Z,51.88
2018-03-03T09:19:35.581Z,55.42
2018-03-03T09:22:01.837Z,52.70
2018-03-03T09:24:28.003Z,53.65
2018-03-03T09:26:54.641Z,53.75
2018-03-03T09:29:21.380Z,54.17
2018-03-03T09:31:48.727Z,54.92
2018-03-03T09:34:15.546Z,51.78
2018-03-03T09:36:43.091Z,51.65
2018-03-03T09:39:09.330Z,50.97
2018-03-03T09:41:35.710Z,55.95
2018-03-03T09:44:01.816Z,56.85
2018-03-03T09:46:28.599Z,52.20
2018-03-03T09:48:54.752Z,55.95
2018-03-03T09:51:21.556Z,55.03
2018-03-03T09:53:47.961Z,56.45
2018-03-03T09:56:14.117Z,54.55
2018-03-03T09:58:40.912Z,57.13
2018-03-03T10:01:07.367Z,57.28
2018-03-03T10:03:33.456Z,52.60
2018-03-03T10:05:59.638Z,55.92
2018-03-03T10:08:26.540Z,50.88
2018-03-03T10:10:52.834Z,52.83
2018-03-03T10:13:19.132Z,55.15
2018-03-03T10:15:45.369Z,57.80
2018-03-03T10:18:11.646Z,56.03
2018-03-03T10:20:38.503Z,55.22
2018-03-03T10:23:06.449Z,52.42
2018-03-03T10:25:32.658Z,52.67
2018-03-03T10:27:58.858Z,56.35
2018-03-03T10:30:25.063Z,54.85
2018-03-03T10:32:52.037Z,54.65
2018-03-03T10:35:18.255Z,52.62
2018-03-03T10:37:46.909Z,55.15
2018-03-03T10:40:14.903Z,52.70
2018-03-03T10:42:41.173Z,53.58
2018-03-03T10:45:08.135Z,57.08
2018-03-03T10:47:34.607Z,54.78
2018-03-03T10:50:01.515Z,55.88
2018-03-03T10:52:28.413Z,52.62
2018-03-03T10:54:54.619Z,51.20
2018-03-03T10:57:21.327Z,54.63
2018-03-03T10:59:47.504Z,59.80
2018-03-03T11:02:13.746Z,57.92
2018-03-03T11:04:40.217Z,61.03
2018-03-03T11:07:06.409Z,74.60
2018-03-03T11:09:32.592Z,64.20
2018-03-03T11:11:58.896Z,50.65
2018-03-03T11:14:25.854Z,59.88
2018-03-03T11:16:52.138Z,65.43
2018-03-03T11:19:18.272Z,59.03
2018-03-03T11:21:44.606Z,61.53
2018-03-03T11:24:11.478Z,61.67
2018-03-03T11:26:38.536Z,60.10
2018-03-03T11:29:04.760Z,59.13
2018-03-03T11:31:30.897Z,55.40
2018-03-03T11:33:58.117Z,54.97
2018-03-03T11:36:25.193Z,57.42
2018-03-03T11:38:51.374Z,57.47
2018-03-03T11:41:17.721Z,54.00
2018-03-03T11:43:45.570Z,57.05
2018-03-03T11:46:12.524Z,53.30
2018-03-03T11:48:39.978Z,55.05
2018-03-03T11:51:06.123Z,52.92
2018-03-03T11:53:32.421Z,54.65
2018-03-03T11:55:58.950Z,53.25
2018-03-03T11:58:25.955Z,53.28
2018-03-03T12:00:52.081Z,52.35
2018-03-03T12:03:19.101Z,54.03
2018-03-03T12:05:45.404Z,54.45
2018-03-03T12:08:12.458Z,53.22
2018-03-03T12:10:38.677Z,54.97
2018-03-03T12:13:06.805Z,55.95
2018-03-03T12:15:33.040Z,54.55
2018-03-03T12:17:59.205Z,51.42
2018-03-03T12:20:26.181Z,53.78
2018-03-03T12:22:52.308Z,55.12
2018-03-03T12:25:19.457Z,52.25
2018-03-03T12:27:46.501Z,53.47
2018-03-03T12:30:12.627Z,53.53
2018-03-03T12:32:38.743Z,53.70
2018-03-03T12:35:04.902Z,56.47
2018-03-03T12:37:31.073Z,53.33
2018-03-03T12:39:58.887Z,53.17
2018-03-03T12:42:25.008Z,52.67
2018-03-03T12:44:51.218Z,54.97
2018-03-03T12:47:17.670Z,51.60
2018-03-03T12:49:43.814Z,52.25
2018-03-03T12:52:09.904Z,52.35
2018-03-03T12:54:36.654Z,52.92
2018-03-03T12:57:02.740Z,53.53
2018-03-03T12:59:30.019Z,50.03
2018-03-03T13:01:57.681Z,52.78
2018-03-03T13:04:23.880Z,53.72
2018-03-03T13:06:50.442Z,52.67
2018-03-03T13:09:16.721Z,54.97
2018-03-03T13:11:42.964Z,55.38
2018-03-03T13:14:09.506Z,53.05
2018-03-03T13:16:35.725Z,55.33
2018-03-03T13:19:02.912Z,52.40
2018-03-03T13:21:28.964Z,50.83
2018-03-03T13:23:56.393Z,56.55
2018-03-03T13:26:23.895Z,52.10
2018-03-03T13:28:51.531Z,53.50
2018-03-03T13:31:18.133Z,50.25
2018-03-03T13:33:44.213Z,53.55
2018-03-03T13:36:10.932Z,53.42
2018-03-03T13:38:37.454Z,53.85
2018-03-03T13:41:04.325Z,56.22
2018-03-03T13:43:31.853Z,53.70
2018-03-03T13:45:58.032Z,54.88
2018-03-03T13:48:25.933Z,53.95
2018-03-03T13:50:53.379Z,55.30
2018-03-03T13:53:20.266Z,55.42
2018-03-03T13:55:48.483Z,53.20
2018-03-03T13:58:15.617Z,50.45
2018-03-03T14:00:42.115Z,53.30
2018-03-03T14:03:08.599Z,55.88
2018-03-03T14:05:35.801Z,54.10
2018-03-03T14:08:02.216Z,54.88
2018-03-03T14:10:28.416Z,56.08
2018-03-03T14:12:54.623Z,55.58
2018-03-03T14:15:22.583Z,53.47
2018-03-03T14:17:48.828Z,52.92
2018-03-03T14:20:16.031Z,52.90
2018-03-03T14:22:46.149Z,55.97
2018-03-03T14:25:12.981Z,56.60
2018-03-03T14:27:39.973Z,66.85
2018-03-03T14:30:07.746Z,61.15
2018-03-03T14:32:35.333Z,67.03
2018-03-03T14:35:04.382Z,56.97
2018-03-03T14:37:30.619Z,55.65
2018-03-03T14:39:56.636Z,58.65
2018-03-03T14:42:23.393Z,54.33
2018-03-03T14:44:50.064Z,55.53
2018-03-03T14:47:16.247Z,55.85
2018-03-03T14:49:42.429Z,54.15
2018-03-03T14:52:08.606Z,53.15
2018-03-03T14:54:34.767Z,51.28
2018-03-03T14:57:00.919Z,52.67
2018-03-03T14:59:27.077Z,50.28
2018-03-03T15:01:53.956Z,48.65
2018-03-03T15:04:20.137Z,48.58
2018-03-03T15:06:46.242Z,50.30
2018-03-03T15:09:12.827Z,48.83
2018-03-03T15:11:39.174Z,48.63
2018-03-03T15:14:05.894Z,46.33
2018-03-03T15:16:32.107Z,47.67
2018-03-03T15:18:58.505Z,47.05
2018-03-03T15:21:25.357Z,47.62
2018-03-03T15:23:51.465Z,48.25
2018-03-03T15:26:18.057Z,49.65
2018-03-03T15:28:44.263Z,49.50
2018-03-03T15:31:10.510Z,54.03
2018-03-03T15:33:37.446Z,54.15
2018-03-03T15:36:03.715Z,51.05
2018-03-03T15:38:29.810Z,51.08
2018-03-03T15:40:55.985Z,48.80
2018-03-03T15:43:22.271Z,50.08
2018-03-03T15:45:49.516Z,49.92
2018-03-03T15:48:16.603Z,51.30
2018-03-03T15:50:42.921Z,50.25
2018-03-03T15:53:09.105Z,48.15
2018-03-03T15:55:35.830Z,50.17
2018-03-03T15:58:02.331Z,50.15
2018-03-03T16:00:28.877Z,46.88
2018-03-03T16:02:56.157Z,50.80
2018-03-03T16:05:23.957Z,49.40
2018-03-03T16:07:51.253Z,52.00
2018-03-03T16:10:17.526Z,49.97
2018-03-03T16:12:43.679Z,52.45
2018-03-03T16:15:09.831Z,50.70
2018-03-03T16:17:36.624Z,52.70
2018-03-03T16:20:04.526Z,50.92
2018-03-03T16:22:30.820Z,53.22
2018-03-03T16:24:57.812Z,50.25
2018-03-03T16:27:24.540Z,49.88
2018-03-03T16:29:51.307Z,50.75
2018-03-03T16:32:17.555Z,52.60
2018-03-03T16:34:44.504Z,53.47
2018-03-03T16:37:11.735Z,51.17
2018-03-03T16:39:37.908Z,52.88
2018-03-03T16:42:04.363Z,53.42
2018-03-03T16:44:30.583Z,55.35
2018-03-03T16:46:57.005Z,53.47
2018-03-03T16:49:23.951Z,53.45
2018-03-03T16:51:50.202Z,54.55
2018-03-03T16:54:16.718Z,53.60
2018-03-03T16:56:42.928Z,54.10
2018-03-03T16:59:11.006Z,54.25
2018-03-03T17:01:37.209Z,51.60
2018-03-03T17:04:03.583Z,49.85
2018-03-03T17:06:29.838Z,51.72
2018-03-03T17:08:56.339Z,50.90
2018-03-03T17:11:22.533Z,52.58
2018-03-03T17:13:50.991Z,51.65
2018-03-03T17:16:17.177Z,52.25
2018-03-03T17:18:43.861Z,48.83
2018-03-03T17:21:09.948Z,52.00
2018-03-03T17:23:36.215Z,48.25
2018-03-03T17:26:04.250Z,47.55
2018-03-03T17:28:30.682Z,49.20
2018-03-03T17:30:57.630Z,51.72
2018-03-03T17:33:26.022Z,52.05
2018-03-03T17:35:52.851Z,47.75
2018-03-03T17:38:20.368Z,50.75
2018-03-03T17:40:46.467Z,51.13
2018-03-03T17:43:13.260Z,53.35
2018-03-03T17:45:39.435Z,52.15
2018-03-03T17:48:07.091Z,52.95
2018-03-03T17:50:33.241Z,51.30
2018-03-03T17:52:59.512Z,54.55
2018-03-03T17:55:26.383Z,52.92
2018-03-03T17:57:55.464Z,54.28
2018-03-03T18:00:23.352Z,53.85
2018-03-03T18:02:49.608Z,52.00
2018-03-03T18:05:15.679Z,55.65
2018-03-03T18:07:42.218Z,54.90
2018-03-03T18:10:09.385Z,55.42
2018-03-03T18:12:35.450Z,53.85
2018-03-03T18:15:01.559Z,51.80
2018-03-03T18:17:28.760Z,52.00
2018-03-03T18:19:54.885Z,54.95
2018-03-03T18:22:21.880Z,51.40
2018-03-03T18:24:48.670Z,55.80
2018-03-03T18:27:14.799Z,53.47
2018-03-03T18:29:40.921Z,55.05
2018-03-03T18:32:07.884Z,53.30
2018-03-03T18:34:33.925Z,51.65
2018-03-03T18:37:00.137Z,55.17
2018-03-03T18:39:26.523Z,54.35
2018-03-03T18:41:53.346Z,52.85
2018-03-03T18:44:19.870Z,54.65
2018-03-03T18:46:46.058Z,50.90
2018-03-03T18:49:12.188Z,52.53
2018-03-03T18:51:38.333Z,53.33
2018-03-03T18:54:05.571Z,54.78
2018-03-03T18:56:32.161Z,54.03
2018-03-03T18:58:58.385Z,54.35
2018-03-03T19:01:25.572Z,55.88
2018-03-03T19:03:52.014Z,58.40
2018-03-03T19:06:18.848Z,60.85
2018-03-03T19:08:45.864Z,58.63
2018-03-03T19:11:12.761Z,58.35
2018-03-03T19:13:39.725Z,60.30
2018-03-03T19:16:08.279Z,58.63
2018-03-03T19:18:35.944Z,60.05
2018-03-03T19:21:02.431Z,55.12
2018-03-03T19:23:28.747Z,55.60
2018-03-03T19:25:54.883Z,56.88
2018-03-03T19:28:23.205Z,59.70
2018-03-03T19:30:49.834Z,54.45
2018-03-03T19:33:19.055Z,56.17
2018-03-03T19:35:45.335Z,54.45
2018-03-03T19:38:11.508Z,56.80
2018-03-03T19:40:37.762Z,67.22
2018-03-03T19:43:04.692Z,59.25
2018-03-03T19:45:30.780Z,56.95
2018-03-03T19:47:57.370Z,56.37
2018-03-03T19:50:23.520Z,54.83
2018-03-03T19:52:49.676Z,56.65
2018-03-03T19:55:16.029Z,59.67
2018-03-03T19:57:43.154Z,59.42
2018-03-03T20:00:09.583Z,55.38
2018-03-03T20:02:36.985Z,60.72
2018-03-03T20:05:03.167Z,56.37
2018-03-03T20:07:30.035Z,53.78
2018-03-03T20:09:56.167Z,60.45
2018-03-03T20:12:22.272Z,60.38
2018-03-03T20:14:49.099Z,57.08
2018-03-03T20:17:15.144Z,55.28
2018-03-03T20:19:42.291Z,61.30
2018-03-03T20:22:08.368Z,57.90
2018-03-03T20:24:34.524Z,57.75
2018-03-03T20:27:00.618Z,61.37
2018-03-03T20:29:27.634Z,57.53
2018-03-03T20:31:53.707Z,56.58
2018-03-03T20:34:19.975Z,55.78
2018-03-03T20:36:46.174Z,63.80
2018-03-03T20:39:12.995Z,60.03
2018-03-03T20:41:39.824Z,58.80
2018-03-03T20:44:05.967Z,57.85
2018-03-03T20:46:32.598Z,57.97
2018-03-03T20:48:59.562Z,59.47
2018-03-03T20:51:26.578Z,57.60
2018-03-03T20:53:53.484Z,57.75
2018-03-03T20:56:20.163Z,60.35
2018-03-03T20:58:46.345Z,57.13
2018-03-03T21:01:15.026Z,60.45
2018-03-03T21:03:42.782Z,59.83
2018-03-03T21:06:09.033Z,60.03
2018-03-03T21:08:35.972Z,61.65
2018-03-03T21:11:03.793Z,62.55
2018-03-03T21:13:30.676Z,60.03
2018-03-03T21:15:57.052Z,59.25
2018-03-03T21:18:24.098Z,58.90
2018-03-03T21:23:22.451Z,59.15
2018-03-03T21:25:49.040Z,58.65
2018-03-03T21:28:15.322Z,58.55
2018-03-03T21:30:41.903Z,57.40
2018-03-03T21:33:08.749Z,60.53
2018-03-03T21:35:36.919Z,60.90
2018-03-03T21:38:03.798Z,62.70
2018-03-03T21:40:30.263Z,57.47
2018-03-03T21:42:58.159Z,58.30
2018-03-03T21:45:24.256Z,64.72
2018-03-03T21:47:50.890Z,65.18
2018-03-03T21:50:18.574Z,62.90
2018-03-03T21:52:44.731Z,59.20
2018-03-03T21:55:11.336Z,60.22
2018-03-03T21:57:38.702Z,59.53
2018-03-03T22:00:06.359Z,58.60
2018-03-03T22:02:33.442Z,58.50
2018-03-03T22:04:59.676Z,58.20
2018-03-03T22:07:26.400Z,58.00
2018-03-03T22:09:53.314Z,59.25
2018-03-03T22:12:19.521Z,58.47
2018-03-03T22:14:45.654Z,57.22
2018-03-03T22:17:12.654Z,56.75
2018-03-03T22:19:38.882Z,59.88
2018-03-03T22:22:06.027Z,59.45
2018-03-03T22:24:35.746Z,57.97
2018-03-03T22:27:02.224Z,59.13
2018-03-03T22:29:29.068Z,62.10
2018-03-03T22:31:56.390Z,57.85
2018-03-03T22:34:22.665Z,57.60
2018-03-03T22:36:48.803Z,58.53
2018-03-03T22:39:15.445Z,60.67
2018-03-03T22:41:41.535Z,61.88
2018-03-03T22:44:07.898Z,60.28
2018-03-03T22:46:34.046Z,61.70
2018-03-03T22:49:01.644Z,57.33
2018-03-03T22:51:28.031Z,63.08
2018-03-03T22:53:59.276Z,59.33
2018-03-03T22:56:25.396Z,62.42
2018-03-03T22:58:52.654Z,59.80
2018-03-03T23:01:18.751Z,59.15
2018-03-03T23:03:44.914Z,55.90
2018-03-03T23:06:12.779Z,59.47
2018-03-03T23:08:39.680Z,59.25
2018-03-03T23:11:06.012Z,63.03
2018-03-03T23:13:32.426Z,57.70
2018-03-03T23:15:58.716Z,62.38
2018-03-03T23:18:25.928Z,63.25
2018-03-03T23:20:52.593Z,60.80
2018-03-03T23:23:18.972Z,62.40
2018-03-03T23:25:45.090Z,57.85
2018-03-03T23:28:12.663Z,61.78
2018-03-03T23:30:38.743Z,62.00
2018-03-03T23:33:10.348Z,62.60
2018-03-03T23:35:37.057Z,61.33
2018-03-03T23:38:04.302Z,58.87
2018-03-03T23:40:30.396Z,64.85
2018-03-03T23:42:57.582Z,62.50
2018-03-03T23:45:23.740Z,59.28
2018-03-03T23:47:49.918Z,61.95
2018-03-03T23:50:18.087Z,62.58
2018-03-03T23:52:44.170Z,64.05
2018-03-03T23:55:10.327Z,60.35
2018-03-03T23:57:37.596Z,59.25
